Weather at High Hopes Airport

Public forecast

Using degrees Fahrenheit for public forecast. Weather courtesy of forecast.io.

Closest aviation weather report (METAR) to High Hopes Airport

Closest report is Wallops Flight Facility Airport, 6.8 nm (12.6 km) E. Retrieved 2021/06/13 16:54 UTC (34 minutes ago):

KWAL 131654Z AUTO 08007KT 10SM CLR 24/16 A2994 RMK AO2 SLP137 T02390156

Closest aviation forecast (TAF) to High Hopes Airport

Closest forecast is Salisbury Ocean City Wicomico Regional Airport, 24.8 nm (46.0 km) N. Retrieved 2021/06/13 12:22 UTC (5 hours ago):

TAF KSBY 131120Z 1312/1412 06003KT P6SM SCT004 SCT015 TEMPO 1312/1314 3SM BR OVC004 FM131500 13005KT P6SM SCT040 FM131900 14007KT P6SM SCT050 FM140400 14002KT 4SM BR BKN100 FM140600 15002KT 2SM BR BKN008 FM141000 15002KT P6SM BKN020